Terminal Aerodrome Forecast
Issued by NWS Raleigh/Durham, NC

Home | Current Version | Previous Version | Text Only | Print | Product List | Glossary On
Versions: 1 2 3 4 5 6 7 8 9 10 11 12 13 14 15 16 17 18 19 20 21 22 23 24 25 26 27 28 29 30 31 32 33 34
000
FTUS42 KRAH 310149 AAA
TAFGSO
TAF AMD
KGSO 310149Z 3102/3124 VRB03KT P6SM BKN100
     FM310600 VRB03KT P6SM OVC025
     FM310900 00000KT 5SM -RA BR OVC012
     FM311200 07003KT 4SM BR OVC005
     FM311500 10005KT P6SM OVC012
     FM312100 13006KT P6SM BKN050=

USA.gov is the U.S. government's official web portal to all federal, state and local government web resources and services.